Time;durP1;ratioP1;P1;durP2;ratioP2;P2;SDS_P1;SDS_P2;PMS_P1;PMS_P2;Temp;Humidity;BMP_temperature;BMP_pressure;BME280_temperature;BME280_humidity;BME280_pressure;Samples;Min_cycle;Max_cycle;Signal;HPM_P1;HPM_P2
2024/01/14 00:02:27;;;;;;;5.45;1.10;;;;;;;2.47;100.00;101290.97;5057198;28;20041;-73
2024/01/14 00:05:13;;;;;;;4.75;1.40;;;;;;;2.50;100.00;101287.47;5067034;28;20060;-72
2024/01/14 00:07:59;;;;;;;1.10;0.70;;;;;;;2.53;100.00;101290.06;5061212;28;20047;-72
2024/01/14 00:10:45;;;;;;;5.60;1.08;;;;;;;2.53;100.00;101288.34;5040019;28;20048;-72
2024/01/14 00:13:31;;;;;;;7.43;1.23;;;;;;;2.56;100.00;101285.69;5065530;28;20040;-72
2024/01/14 00:16:17;;;;;;;5.03;1.45;;;;;;;2.60;100.00;101297.00;5064991;28;20055;-72
2024/01/14 00:19:04;;;;;;;7.43;1.20;;;;;;;2.65;100.00;101294.34;5052213;28;20486;-72
2024/01/14 00:21:53;;;;;;;8.15;1.30;;;;;;;2.68;100.00;101302.19;5068425;28;20044;-72
2024/01/14 00:24:39;;;;;;;9.07;1.00;;;;;;;2.77;100.00;101296.91;5064129;28;20021;-72
2024/01/14 00:27:24;;;;;;;5.03;1.02;;;;;;;2.85;100.00;101287.28;5064846;28;20102;-72
2024/01/14 00:30:11;;;;;;;4.15;0.98;;;;;;;2.92;100.00;101282.00;5065126;28;20059;-72
2024/01/14 00:33:06;;;;;;;2.03;0.70;;;;;;;2.93;100.00;101286.34;5065738;28;20024;-72
2024/01/14 00:35:52;;;;;;;3.28;0.80;;;;;;;2.90;100.00;101278.53;5066660;28;20032;-72
2024/01/14 00:38:38;;;;;;;3.17;0.70;;;;;;;2.90;100.00;101278.53;5067830;28;20055;-72
2024/01/14 00:41:23;;;;;;;4.47;0.80;;;;;;;2.89;100.00;101274.19;5067811;28;20043;-72
2024/01/14 00:44:09;;;;;;;6.88;0.93;;;;;;;2.88;100.00;101269.84;5065953;28;20050;-72
2024/01/14 00:46:55;;;;;;;5.35;1.10;;;;;;;2.89;100.00;101267.19;5050300;28;20043;-72
2024/01/14 00:49:40;;;;;;;6.78;1.02;;;;;;;2.88;100.00;101275.06;5063613;28;20074;-71
2024/01/14 00:52:26;;;;;;;5.00;1.17;;;;;;;2.88;100.00;101260.22;5065043;28;21579;-72
2024/01/14 00:55:15;;;;;;;9.13;1.27;;;;;;;2.87;100.00;101255.03;5049035;28;20063;-71
2024/01/14 00:58:01;;;;;;;4.85;0.85;;;;;;;2.85;100.00;101250.66;5065497;28;20071;-71
2024/01/14 01:00:47;;;;;;;5.90;1.10;;;;;;;2.84;100.00;101248.91;5064715;28;20767;-72
2024/01/14 01:03:33;;;;;;;10.13;1.85;;;;;;;2.81;100.00;101238.50;5066730;28;20040;-72
2024/01/14 01:06:19;;;;;;;10.07;1.33;;;;;;;2.80;100.00;101241.09;5054489;28;20071;-72
2024/01/14 01:09:05;;;;;;;7.95;1.70;;;;;;;2.74;100.00;101236.81;5063575;28;20056;-72
2024/01/14 01:11:51;;;;;;;9.27;1.58;;;;;;;2.70;100.00;101229.84;5065560;28;20036;-72
2024/01/14 01:14:36;;;;;;;1.83;0.80;;;;;;;2.65;100.00;101240.34;5036533;28;20055;-72
2024/01/14 01:17:22;;;;;;;6.88;1.10;;;;;;;2.56;100.00;101230.78;5066550;28;20111;-72
2024/01/14 01:20:10;;;;;;;4.43;1.17;;;;;;;2.49;100.00;101242.16;5059215;28;20040;-72
2024/01/14 01:22:56;;;;;;;2.70;1.00;;;;;;;2.40;100.00;101227.38;5064804;28;20115;-73
2024/01/14 01:25:42;;;;;;;6.95;1.00;;;;;;;2.33;100.00;101228.31;5065137;28;20081;-72
2024/01/14 01:28:28;;;;;;;4.43;1.10;;;;;;;2.26;100.00;101230.09;5061799;28;20043;-73
2024/01/14 01:31:13;;;;;;;6.88;1.40;;;;;;;2.21;100.00;101218.78;5060762;28;20081;-73
2024/01/14 01:33:59;;;;;;;4.53;1.00;;;;;;;2.17;100.00;101228.38;5068978;28;20089;-73
2024/01/14 01:36:46;;;;;;;5.88;0.80;;;;;;;2.13;100.00;101223.19;5031316;28;20045;-73
2024/01/14 01:39:31;;;;;;;6.65;1.25;;;;;;;2.10;100.00;101216.22;5063907;28;20131;-72
2024/01/14 01:42:17;;;;;;;5.53;1.02;;;;;;;2.08;100.00;101225.81;5043405;28;20036;-72
2024/01/14 01:45:03;;;;;;;8.25;1.20;;;;;;;2.05;100.00;101214.50;5059475;28;20035;-72
2024/01/14 01:47:49;;;;;;;5.75;0.90;;;;;;;2.03;100.00;101212.75;5054141;28;20039;-72
2024/01/14 01:50:35;;;;;;;4.97;0.82;;;;;;;2.01;100.00;101216.25;5063772;28;20051;-72
2024/01/14 01:53:23;;;;;;;7.53;1.00;;;;;;;1.99;100.00;101207.53;5049819;28;20059;-72
2024/01/14 01:56:10;;;;;;;4.43;0.80;;;;;;;1.95;100.00;101206.69;5039679;22;20058;-72
2024/01/14 01:58:55;;;;;;;8.27;1.20;;;;;;;1.94;100.00;101206.69;4996591;28;20088;-72
2024/01/14 02:01:47;;;;;;;6.97;1.20;;;;;;;1.93;100.00;101212.78;4999011;28;20052;-72
2024/01/14 02:04:32;;;;;;;8.15;0.93;;;;;;;1.94;100.00;101217.13;5009500;28;20034;-72
2024/01/14 02:07:20;;;;;;;6.25;1.00;;;;;;;1.96;100.00;101207.56;4999717;28;20042;-72
2024/01/14 02:10:06;;;;;;;5.20;1.42;;;;;;;1.98;100.00;101213.66;5002462;28;20037;-72
2024/01/14 02:12:52;;;;;;;5.90;1.15;;;;;;;1.97;100.00;101215.38;4998183;28;20418;-72
2024/01/14 02:15:37;;;;;;;6.90;1.30;;;;;;;1.98;100.00;101209.31;5004198;28;20048;-72
2024/01/14 02:18:23;;;;;;;7.95;1.02;;;;;;;1.98;100.00;101209.31;5000013;28;20570;-73
2024/01/14 02:21:10;;;;;;;5.47;1.65;;;;;;;1.99;100.00;101195.38;5010584;28;20030;-73
2024/01/14 02:24:06;;;;;;;5.70;1.38;;;;;;;2.00;100.00;101189.28;4993681;28;20440;-70
2024/01/14 02:26:52;;;;;;;9.48;1.60;;;;;;;2.01;100.00;101179.66;5008187;28;20057;-71
2024/01/14 02:29:38;;;;;;;8.43;1.38;;;;;;;2.02;100.00;101178.81;4996978;28;20038;-71
2024/01/14 02:32:24;;;;;;;3.17;1.33;;;;;;;2.03;100.00;101176.19;5011631;28;20132;-71
2024/01/14 02:35:10;;;;;;;7.90;1.60;;;;;;;2.06;100.00;101179.69;5014436;28;20025;-71
2024/01/14 02:37:55;;;;;;;8.68;1.35;;;;;;;2.06;100.00;101174.44;4999439;28;20160;-72
2024/01/14 02:40:42;;;;;;;7.95;2.28;;;;;;;2.05;100.00;101167.50;5010561;28;20077;-72
2024/01/14 02:43:27;;;;;;;6.05;0.98;;;;;;;2.05;100.00;101175.34;5007712;28;20052;-72
2024/01/14 02:46:13;;;;;;;4.97;1.40;;;;;;;2.00;100.00;101164.88;5007896;28;20075;-72
2024/01/14 02:48:59;;;;;;;7.90;1.50;;;;;;;1.98;100.00;101169.25;5010090;28;20084;-72
2024/01/14 02:51:45;;;;;;;8.88;1.40;;;;;;;1.96;100.00;101173.63;5012989;28;20053;-71
2024/01/14 02:54:31;;;;;;;8.98;1.23;;;;;;;1.96;100.00;101168.41;5015256;28;20045;-72
2024/01/14 02:57:17;;;;;;;5.38;1.25;;;;;;;1.91;100.00;101163.19;5028654;28;20516;-72
2024/01/14 03:00:04;;;;;;;6.50;1.30;;;;;;;1.90;100.00;101164.03;5020143;28;20557;-72
2024/01/14 03:02:50;;;;;;;4.35;0.95;;;;;;;1.89;100.00;101164.94;5020432;28;20037;-72
2024/01/14 03:05:35;;;;;;;6.00;1.00;;;;;;;1.90;100.00;101164.03;5019773;28;20029;-72
2024/01/14 03:08:21;;;;;;;5.03;1.60;;;;;;;1.87;100.00;101162.31;5023699;28;20102;-72
2024/01/14 03:11:07;;;;;;;13.02;1.48;;;;;;;1.84;100.00;101158.84;5035156;28;20124;-72
2024/01/14 03:13:52;;;;;;;9.23;1.30;;;;;;;1.83;100.00;101165.84;5027885;28;20041;-71
2024/01/14 03:16:38;;;;;;;3.00;1.00;;;;;;;1.76;100.00;101162.34;5034836;28;20042;-72
2024/01/14 03:19:24;;;;;;;10.07;1.30;;;;;;;1.74;100.00;101156.28;5026484;28;20036;-72
2024/01/14 03:22:10;;;;;;;5.55;1.10;;;;;;;1.69;100.00;101155.44;5021162;28;20055;-72
2024/01/14 03:24:56;;;;;;;4.93;1.40;;;;;;;1.69;100.00;101150.19;5034808;28;20064;-72
2024/01/14 03:27:42;;;;;;;7.93;1.27;;;;;;;1.68;100.00;101156.31;5035507;28;20052;-72
2024/01/14 03:30:27;;;;;;;7.53;2.03;;;;;;;1.69;100.00;101155.44;5037431;28;20128;-72
2024/01/14 03:33:13;;;;;;;6.07;1.88;;;;;;;1.70;100.00;101146.72;5038834;28;20041;-71
2024/01/14 03:36:00;;;;;;;7.70;1.80;;;;;;;1.73;100.00;101144.13;5021298;28;20047;-72
2024/01/14 03:38:46;;;;;;;6.05;1.30;;;;;;;1.78;100.00;101143.25;5013702;28;20107;-71
2024/01/14 03:41:32;;;;;;;5.95;1.25;;;;;;;1.83;100.00;101136.22;5032754;28;20047;-71
2024/01/14 03:44:18;;;;;;;9.18;1.60;;;;;;;1.89;100.00;101123.16;5019575;28;20041;-71
2024/01/14 03:47:04;;;;;;;7.32;1.42;;;;;;;1.93;100.00;101117.03;5020506;28;20041;-71
2024/01/14 03:49:49;;;;;;;6.13;1.20;;;;;;;2.00;100.00;101117.88;5034301;28;20062;-72
2024/01/14 03:52:35;;;;;;;6.90;1.33;;;;;;;2.07;100.00;101116.09;5036176;28;20044;-72
2024/01/14 03:55:21;;;;;;;6.50;1.70;;;;;;;2.12;100.00;101116.97;5037145;28;20147;-72
2024/01/14 03:58:06;;;;;;;6.45;1.45;;;;;;;2.17;100.00;101117.78;5021192;28;20387;-71
2024/01/14 04:00:52;;;;;;;4.00;1.30;;;;;;;2.22;100.00;101113.41;5032444;28;20485;-71
2024/01/14 04:03:38;;;;;;;12.00;1.38;;;;;;;2.25;100.00;101117.72;5034219;28;20524;-71
2024/01/14 04:06:24;;;;;;;4.78;1.23;;;;;;;2.27;100.00;101103.78;5036447;28;20123;-71
2024/01/14 04:09:10;;;;;;;6.97;1.13;;;;;;;2.26;100.00;101102.06;5021919;28;20539;-71
2024/01/14 04:11:56;;;;;;;6.47;1.00;;;;;;;2.22;100.00;101100.31;5033009;28;20687;-71
2024/01/14 04:14:44;;;;;;;4.03;1.10;;;;;;;2.16;100.00;101087.31;5033340;28;20048;-71
2024/01/14 04:17:29;;;;;;;4.85;0.88;;;;;;;2.12;100.00;101088.22;5036732;28;20932;-72
2024/01/14 04:20:15;;;;;;;2.33;0.73;;;;;;;2.10;100.00;101080.38;5020568;28;20519;-72
2024/01/14 04:23:01;;;;;;;4.82;1.30;;;;;;;2.08;100.00;101078.66;5021458;28;20709;-72
2024/01/14 04:25:46;;;;;;;3.95;1.42;;;;;;;2.02;100.00;101083.03;5037142;28;20434;-72
2024/01/14 04:28:32;;;;;;;5.65;1.27;;;;;;;1.99;100.00;101085.69;5017588;28;20581;-72
2024/01/14 04:31:18;;;;;;;7.57;1.48;;;;;;;1.97;100.00;101086.56;5031993;28;20080;-72
2024/01/14 04:34:04;;;;;;;7.50;1.63;;;;;;;1.95;100.00;101078.72;5025137;28;20029;-72
2024/01/14 04:36:50;;;;;;;5.65;1.40;;;;;;;1.94;100.00;101079.59;5036279;28;20036;-71
2024/01/14 04:39:35;;;;;;;6.47;1.02;;;;;;;1.93;100.00;101083.09;5019458;28;20037;-72
2024/01/14 04:42:23;;;;;;;7.50;1.33;;;;;;;1.92;100.00;101073.53;5032080;28;20033;-72
2024/01/14 04:45:08;;;;;;;4.40;1.08;;;;;;;1.91;100.00;101077.03;5022127;28;20041;-72
2024/01/14 04:47:54;;;;;;;4.07;1.20;;;;;;;1.92;100.00;101072.66;5032586;28;20098;-72
2024/01/14 04:50:40;;;;;;;9.65;1.33;;;;;;;1.91;100.00;101071.81;5009864;28;20040;-71
2024/01/14 04:53:27;;;;;;;4.13;0.93;;;;;;;1.90;100.00;101070.91;5033400;28;20050;-71
2024/01/14 04:56:13;;;;;;;4.05;1.05;;;;;;;1.90;100.00;101075.25;5032344;28;20080;-72
2024/01/14 04:58:58;;;;;;;8.63;1.45;;;;;;;1.89;100.00;101065.69;5033194;28;20049;-71
2024/01/14 05:01:44;;;;;;;8.93;1.00;;;;;;;1.88;100.00;101062.25;5010382;28;20440;-72
2024/01/14 05:04:30;;;;;;;5.38;1.35;;;;;;;1.88;100.00;101062.25;5034073;28;20403;-71
2024/01/14 05:07:15;;;;;;;3.83;1.05;;;;;;;1.89;100.00;101058.75;5026981;28;20556;-71
2024/01/14 05:10:01;;;;;;;6.15;1.27;;;;;;;1.88;100.00;101053.53;5029740;28;20075;-71
2024/01/14 05:12:47;;;;;;;5.22;1.20;;;;;;;1.88;100.00;101045.69;5028049;28;21999;-71
2024/01/14 05:15:33;;;;;;;9.35;0.90;;;;;;;1.90;100.00;101039.59;5013585;28;20037;-71
2024/01/14 05:18:18;;;;;;;6.15;1.13;;;;;;;1.92;100.00;101038.69;5031325;28;20422;-71
2024/01/14 05:21:06;;;;;;;15.32;1.50;;;;;;;1.93;100.00;101040.44;5015358;28;20045;-72
2024/01/14 05:23:51;;;;;;;5.25;1.10;;;;;;;1.91;100.00;101032.63;5031113;28;20045;-71
2024/01/14 05:26:40;;;;;;;4.13;1.00;;;;;;;1.89;100.00;101023.91;5026996;28;20032;-72
2024/01/14 05:29:26;;;;;;;6.22;1.27;;;;;;;1.86;100.00;101021.34;5021492;28;20078;-71
2024/01/14 05:32:13;;;;;;;2.47;1.00;;;;;;;1.84;100.00;101028.28;5016893;28;20092;-71
2024/01/14 05:34:59;;;;;;;9.15;1.33;;;;;;;1.82;100.00;101022.22;5035057;28;20041;-71
2024/01/14 05:37:45;;;;;;;9.07;1.35;;;;;;;1.81;100.00;101023.09;5030321;28;20403;-71
2024/01/14 05:40:32;;;;;;;9.68;1.38;;;;;;;1.80;100.00;101018.75;5033270;28;20029;-71
2024/01/14 05:43:17;;;;;;;10.65;1.55;;;;;;;1.81;100.00;101021.38;5007914;28;20040;-71
2024/01/14 05:46:04;;;;;;;7.00;1.63;;;;;;;1.81;100.00;101016.16;5017418;28;20095;-71
2024/01/14 05:48:49;;;;;;;7.20;1.20;;;;;;;1.82;100.00;101019.63;5019131;28;20041;-72
2024/01/14 05:51:35;;;;;;;12.07;1.23;;;;;;;1.82;100.00;101010.03;5027696;28;20078;-71
2024/01/14 05:54:21;;;;;;;3.97;1.35;;;;;;;1.86;100.00;101003.91;5032793;28;21946;-71
2024/01/14 05:57:06;;;;;;;6.38;1.30;;;;;;;1.89;100.00;100993.47;4992623;28;20053;-71
2024/01/14 05:59:52;;;;;;;7.65;1.20;;;;;;;1.92;100.00;100994.31;5031585;28;20045;-71
2024/01/14 06:02:38;;;;;;;7.47;1.50;;;;;;;1.92;100.00;100989.97;5019418;28;21627;-71
2024/01/14 06:05:24;;;;;;;5.13;1.48;;;;;;;1.94;100.00;100997.75;5016321;28;20037;-71
2024/01/14 06:08:09;;;;;;;6.40;1.05;;;;;;;1.95;100.00;100987.31;5016087;28;20091;-70
2024/01/14 06:10:55;;;;;;;8.90;1.10;;;;;;;1.96;100.00;100986.44;5033338;28;20049;-71
2024/01/14 06:13:43;;;;;;;4.47;1.50;;;;;;;1.95;100.00;100984.72;5025692;28;20338;-71
2024/01/14 06:16:29;;;;;;;9.38;1.42;;;;;;;1.95;100.00;100983.84;5018635;28;20044;-71
2024/01/14 06:19:15;;;;;;;7.53;1.60;;;;;;;1.93;100.00;100980.38;5032331;28;20036;-71
2024/01/14 06:22:01;;;;;;;8.57;1.40;;;;;;;1.91;100.00;100983.00;5032220;28;20045;-71
2024/01/14 06:24:46;;;;;;;3.92;0.95;;;;;;;1.91;100.00;100977.78;5033761;28;20068;-71
2024/01/14 06:27:32;;;;;;;3.45;1.00;;;;;;;1.91;100.00;100988.25;5034223;28;20041;-71
2024/01/14 06:30:18;;;;;;;6.00;0.82;;;;;;;1.90;100.00;100983.88;5039201;28;20041;-72
2024/01/14 06:33:04;;;;;;;4.45;0.93;;;;;;;1.92;100.00;100968.19;5035915;28;20500;-72
2024/01/14 06:35:50;;;;;;;3.53;0.98;;;;;;;1.91;100.00;100972.56;5014399;28;20029;-71
2024/01/14 06:38:35;;;;;;;6.53;1.10;;;;;;;1.90;100.00;100970.81;5032832;28;20039;-71
2024/01/14 06:41:25;;;;;;;4.75;1.17;;;;;;;1.92;100.00;100966.47;5021368;28;20037;-71
2024/01/14 06:44:12;;;;;;;4.07;1.05;;;;;;;1.93;100.00;100957.75;5032159;28;20041;-71
2024/01/14 06:46:58;;;;;;;5.38;1.10;;;;;;;1.94;100.00;100956.88;5037654;28;20060;-71
2024/01/14 06:49:44;;;;;;;4.15;1.05;;;;;;;1.93;100.00;100962.97;5035998;28;20519;-71
2024/01/14 06:52:29;;;;;;;9.95;1.30;;;;;;;1.94;100.00;100964.69;5036507;28;20037;-71
2024/01/14 06:55:15;;;;;;;4.32;1.00;;;;;;;1.94;100.00;100972.53;5037833;28;20064;-71
2024/01/14 06:58:01;;;;;;;5.95;1.08;;;;;;;1.93;100.00;100949.91;5033946;28;20076;-71
2024/01/14 07:00:47;;;;;;;5.18;1.48;;;;;;;1.92;100.00;100949.91;5034318;28;20116;-72
2024/01/14 07:03:32;;;;;;;15.43;5.65;;;;;;;1.90;100.00;100942.09;5006013;28;20044;-71
2024/01/14 07:06:18;;;;;;;4.53;2.45;;;;;;;1.89;100.00;100949.06;5033146;28;20037;-70
2024/01/14 07:09:04;;;;;;;4.85;1.90;;;;;;;1.89;100.00;100948.19;5030255;28;20088;-70
2024/01/14 07:11:50;;;;;;;4.40;2.40;;;;;;;1.88;100.00;100949.94;5021301;28;20542;-70
2024/01/14 07:14:35;;;;;;;6.93;1.73;;;;;;;1.89;100.00;100951.69;5008323;28;21804;-70
2024/01/14 07:17:21;;;;;;;5.93;1.23;;;;;;;1.89;100.00;100945.59;5016442;28;20492;-70
2024/01/14 07:20:07;;;;;;;6.05;1.80;;;;;;;1.89;100.00;100948.19;5030434;28;20408;-70
2024/01/14 07:22:53;;;;;;;4.38;1.90;;;;;;;1.88;100.00;100949.06;5032526;28;20174;-71
2024/01/14 07:25:39;;;;;;;5.75;1.58;;;;;;;1.85;100.00;100939.50;5035884;28;20523;-71
2024/01/14 07:28:24;;;;;;;3.58;1.90;;;;;;;1.85;100.00;100941.28;5037513;28;20488;-70
2024/01/14 07:31:12;;;;;;;3.63;2.00;;;;;;;1.83;100.00;100948.22;5032422;28;20066;-71
2024/01/14 07:33:58;;;;;;;11.73;2.05;;;;;;;1.83;100.00;100948.22;5035481;28;20020;-71
2024/01/14 07:36:44;;;;;;;7.40;1.48;;;;;;;1.83;100.00;100945.63;5020508;28;20048;-71
2024/01/14 07:39:30;;;;;;;4.18;1.30;;;;;;;1.82;100.00;100950.00;5035906;28;20043;-71
2024/01/14 07:42:16;;;;;;;8.98;1.42;;;;;;;1.79;100.00;100944.78;5033465;28;20043;-71
2024/01/14 07:45:02;;;;;;;7.53;2.03;;;;;;;1.76;100.00;100942.22;5019817;28;20043;-71
2024/01/14 07:47:48;;;;;;;8.05;2.03;;;;;;;1.74;100.00;100934.38;5021344;28;20044;-71
2024/01/14 07:50:34;;;;;;;3.13;1.10;;;;;;;1.75;100.00;100935.25;5034068;28;20049;-71
2024/01/14 07:53:20;;;;;;;11.55;1.25;;;;;;;1.74;100.00;100923.94;5024597;28;20100;-72
2024/01/14 07:56:05;;;;;;;4.00;1.50;;;;;;;1.73;100.00;100935.25;5034952;28;20076;-72
2024/01/14 07:58:51;;;;;;;3.47;1.23;;;;;;;1.73;100.00;100937.00;5023224;28;20045;-71
2024/01/14 08:01:37;;;;;;;3.42;1.40;;;;;;;1.72;100.00;100946.59;5018837;28;20044;-72
2024/01/14 08:04:23;;;;;;;3.65;1.42;;;;;;;1.72;100.00;100936.16;5006120;28;20504;-71
2024/01/14 08:07:11;;;;;;;6.85;1.80;;;;;;;1.72;100.00;100936.16;5023581;28;20057;-71
2024/01/14 08:09:59;;;;;;;6.63;1.88;;;;;;;1.74;100.00;100941.34;5020502;28;20451;-71
2024/01/14 08:12:44;;;;;;;7.03;1.85;;;;;;;1.72;100.00;100930.91;5023594;28;20063;-71
2024/01/14 08:15:30;;;;;;;8.18;1.30;;;;;;;1.73;100.00;100929.16;5020807;28;20040;-71
2024/01/14 08:18:16;;;;;;;7.95;1.50;;;;;;;1.73;100.00;100943.09;5028428;28;20068;-72
2024/01/14 08:21:07;;;;;;;5.30;1.23;;;;;;;1.72;100.00;100933.53;5030758;28;20118;-72
2024/01/14 08:23:53;;;;;;;5.25;1.27;;;;;;;1.72;100.00;100936.16;5019700;28;20123;-70
2024/01/14 08:26:44;;;;;;;4.07;1.20;;;;;;;1.73;100.00;100931.78;5022445;28;20037;-71
2024/01/14 08:29:30;;;;;;;7.03;1.27;;;;;;;1.74;100.00;100928.31;5007778;28;20044;-71
2024/01/14 08:32:15;;;;;;;2.70;1.15;;;;;;;1.74;100.00;100931.75;5037169;28;20068;-71
2024/01/14 08:35:01;;;;;;;4.40;0.90;;;;;;;1.76;100.00;100927.38;5019594;28;20110;-71
2024/01/14 08:37:47;;;;;;;2.05;0.73;;;;;;;1.76;100.00;100918.72;5033478;28;20072;-71
2024/01/14 08:40:33;;;;;;;5.68;1.27;;;;;;;1.79;100.00;100916.06;5034399;28;20036;-71
2024/01/14 08:43:19;;;;;;;2.92;1.30;;;;;;;1.81;100.00;100916.94;5036337;28;20033;-71
2024/01/14 08:46:04;;;;;;;1.88;1.20;;;;;;;1.82;100.00;100913.44;5033671;28;20041;-71
2024/01/14 08:48:50;;;;;;;4.20;1.65;;;;;;;1.81;100.00;100905.63;5032413;28;20044;-70
2024/01/14 08:51:38;;;;;;;6.75;1.20;;;;;;;1.79;100.00;100900.41;5036147;28;20041;-71
2024/01/14 08:54:24;;;;;;;6.13;1.73;;;;;;;1.79;100.00;100899.53;5041701;28;20033;-70
2024/01/14 08:57:11;;;;;;;6.60;1.75;;;;;;;1.78;100.00;100887.38;5036132;28;20139;-71
2024/01/14 08:59:57;;;;;;;4.28;1.55;;;;;;;1.81;100.00;100895.16;5035839;28;20082;-71
2024/01/14 09:02:42;;;;;;;5.82;1.58;;;;;;;1.83;100.00;100896.00;5024143;28;20037;-71
2024/01/14 09:05:28;;;;;;;40.85;6.47;;;;;;;1.87;100.00;100887.28;5039995;28;20124;-70
2024/01/14 09:08:14;;;;;;;4.35;1.25;;;;;;;1.95;100.00;100889.84;5036699;28;20037;-70
2024/01/14 09:11:00;;;;;;;6.47;1.30;;;;;;;1.97;100.00;100886.31;5037430;28;20095;-70
2024/01/14 09:13:45;;;;;;;7.45;1.45;;;;;;;1.99;100.00;100887.19;5035785;28;20033;-70
2024/01/14 09:16:31;;;;;;;8.63;1.95;;;;;;;2.02;100.00;100887.16;5018736;28;20045;-70
2024/01/14 09:19:17;;;;;;;6.07;1.70;;;;;;;2.06;100.00;100874.06;5027139;28;20745;-70
2024/01/14 09:22:03;;;;;;;2.83;1.30;;;;;;;2.08;100.00;100877.53;5030957;28;20033;-70
2024/01/14 09:24:48;;;;;;;6.00;1.55;;;;;;;2.10;100.00;100884.47;5019489;28;20078;-71
2024/01/14 09:27:35;;;;;;;10.73;2.03;;;;;;;2.12;100.00;100879.25;5014304;28;20081;-71
2024/01/14 09:30:20;;;;;;;3.58;1.50;;;;;;;2.13;100.00;100880.97;5031202;28;20029;-71
2024/01/14 09:33:06;;;;;;;3.60;1.40;;;;;;;2.15;100.00;100873.97;5020339;28;20056;-70
2024/01/14 09:35:54;;;;;;;5.03;1.67;;;;;;;2.16;100.00;100866.13;5018510;28;20437;-71
2024/01/14 09:38:40;;;;;;;8.07;1.60;;;;;;;2.19;100.00;100870.47;5031323;28;20567;-71
2024/01/14 09:41:34;;;;;;;4.93;1.33;;;;;;;2.23;100.00;100876.53;5034107;28;20037;-71
2024/01/14 09:44:20;;;;;;;6.65;1.38;;;;;;;2.27;100.00;100862.53;5019398;28;20029;-71
2024/01/14 09:47:08;;;;;;;2.97;1.20;;;;;;;2.34;100.00;100868.56;5038267;28;20063;-70
2024/01/14 09:49:57;;;;;;;5.93;1.10;;;;;;;2.39;100.00;100861.56;5020744;28;20723;-71
2024/01/14 09:52:43;;;;;;;6.65;1.13;;;;;;;2.44;100.00;100864.94;5015042;28;20049;-71
2024/01/14 09:55:28;;;;;;;7.75;1.48;;;;;;;2.48;100.00;100852.72;5037241;28;20075;-72
2024/01/14 09:58:16;;;;;;;4.05;1.50;;;;;;;2.48;100.00;100848.38;5036053;28;20149;-71
2024/01/14 10:01:04;;;;;;;8.43;1.05;;;;;;;2.53;100.00;100856.16;5023192;28;20451;-72
2024/01/14 10:03:51;;;;;;;5.57;1.35;;;;;;;2.57;100.00;100853.47;5039125;28;20036;-71
2024/01/14 10:06:37;;;;;;;6.90;1.35;;;;;;;2.62;100.00;100853.41;5010613;28;20036;-71
2024/01/14 10:09:24;;;;;;;2.42;0.93;;;;;;;2.67;100.00;100840.31;5037373;28;20048;-71
2024/01/14 10:12:14;;;;;;;5.05;1.23;;;;;;;2.68;100.00;100842.03;5044179;28;20049;-71
2024/01/14 10:15:00;;;;;;;2.80;1.50;;;;;;;2.71;100.00;100844.59;5038572;28;20028;-71
2024/01/14 10:17:46;;;;;;;6.90;1.30;;;;;;;2.73;100.00;100850.69;5040341;28;21920;-71
2024/01/14 10:20:32;;;;;;;4.35;1.08;;;;;;;2.75;100.00;100841.06;5052169;28;20041;-71
2024/01/14 10:23:17;;;;;;;4.63;1.00;;;;;;;2.78;100.00;100841.00;5056591;28;20041;-71
2024/01/14 10:26:03;;;;;;;4.78;1.20;;;;;;;2.79;100.00;100834.91;5060049;28;20321;-71
2024/01/14 10:28:49;;;;;;;5.10;1.05;;;;;;;2.80;100.00;100828.81;5054629;28;20033;-71
2024/01/14 10:31:35;;;;;;;4.03;1.20;;;;;;;2.80;100.00;100831.44;5056202;28;20407;-71
2024/01/14 10:34:21;;;;;;;2.83;1.17;;;;;;;2.78;100.00;100830.56;5055923;28;20037;-72
2024/01/14 10:37:08;;;;;;;7.55;1.20;;;;;;;2.79;100.00;100811.34;5042438;28;20301;-72
2024/01/14 10:39:54;;;;;;;5.85;1.15;;;;;;;2.79;100.00;100815.75;5047395;28;20040;-71
2024/01/14 10:42:40;;;;;;;5.40;0.98;;;;;;;2.78;100.00;100812.25;5025688;28;20048;-72
2024/01/14 10:45:25;;;;;;;1.70;0.55;;;;;;;2.75;100.00;100814.03;5045393;28;20098;-72
2024/01/14 10:48:12;;;;;;;9.15;1.17;;;;;;;2.73;100.00;100803.63;5038970;28;20481;-71
2024/01/14 10:51:01;;;;;;;5.55;0.93;;;;;;;2.70;100.00;100795.81;5039715;28;20213;-72
2024/01/14 10:54:14;;;;;;;4.07;0.88;;;;;;;2.65;100.00;100789.78;5056558;28;20032;-71
2024/01/14 10:57:15;;;;;;;2.72;0.90;;;;;;;2.65;100.00;100795.00;5053147;28;20045;-71
2024/01/14 11:00:12;;;;;;;5.18;0.93;;;;;;;2.66;100.00;100789.75;5049894;28;20094;-72
2024/01/14 11:02:57;;;;;;;1.50;0.85;;;;;;;2.67;100.00;100780.19;5053584;28;20029;-72
2024/01/14 11:05:43;;;;;;;4.53;1.00;;;;;;;2.68;100.00;100766.22;5039865;28;20029;-71
2024/01/14 11:08:30;;;;;;;1.83;0.80;;;;;;;2.68;100.00;100756.59;5027822;28;20043;-71
2024/01/14 11:11:22;;;;;;;1.63;0.60;;;;;;;2.69;100.00;100745.28;5059046;28;20028;-72
2024/01/14 11:14:36;;;;;;;1.75;0.60;;;;;;;2.70;100.00;100749.63;5046388;28;20045;-71
2024/01/14 11:17:52;;;;;;;1.13;0.65;;;;;;;2.72;100.00;100746.97;5061613;28;21546;-71
2024/01/14 11:20:41;;;;;;;1.40;0.80;;;;;;;2.75;100.00;100746.94;5038614;28;20413;-71
2024/01/14 11:23:33;;;;;;;0.82;0.70;;;;;;;2.83;100.00;100739.00;5048881;28;20032;-70
2024/01/14 11:26:21;;;;;;;3.00;1.00;;;;;;;2.89;100.00;100735.41;5060828;28;20056;-71
2024/01/14 11:29:07;;;;;;;2.90;1.00;;;;;;;2.92;100.00;100728.38;5047400;28;20037;-71
2024/01/14 11:32:12;;;;;;;1.48;0.70;;;;;;;2.93;100.00;100727.50;5059538;28;20048;-72
2024/01/14 11:34:59;;;;;;;5.15;0.80;;;;;;;2.95;100.00;100728.31;5043544;28;20256;-72
2024/01/14 11:37:45;;;;;;;2.35;0.70;;;;;;;2.98;100.00;100711.72;5048394;28;20146;-72
2024/01/14 11:40:32;;;;;;;3.95;1.17;;;;;;;3.01;100.00;100711.69;5061428;28;20411;-71
2024/01/14 11:43:19;;;;;;;4.82;0.98;;;;;;;3.03;100.00;100696.81;5060011;28;20041;-71
2024/01/14 11:46:05;;;;;;;1.02;0.75;;;;;;;3.04;100.00;100703.78;5054970;28;20109;-71
2024/01/14 11:48:50;;;;;;;4.97;0.80;;;;;;;3.06;100.00;100695.91;5055557;28;20040;-72
2024/01/14 11:51:43;;;;;;;4.03;1.20;;;;;;;3.04;100.00;100684.63;5053106;28;20045;-72
2024/01/14 11:54:32;;;;;;;4.18;0.98;;;;;;;3.04;100.00;100674.16;5056835;28;20068;-72
2024/01/14 11:57:23;;;;;;;3.92;1.05;;;;;;;3.04;100.00;100675.00;5053658;28;20270;-70
2024/01/14 12:00:08;;;;;;;5.85;1.10;;;;;;;3.03;100.00;100670.66;5053727;28;20499;-72
2024/01/14 12:03:04;;;;;;;2.53;0.88;;;;;;;3.02;100.00;100662.84;5054709;28;20044;-72
2024/01/14 12:05:50;;;;;;;4.50;1.02;;;;;;;3.03;100.00;100652.34;5052146;28;20097;-72
2024/01/14 12:08:36;;;;;;;4.32;0.90;;;;;;;3.03;100.00;100657.59;5048850;28;20488;-72
2024/01/14 12:11:21;;;;;;;3.08;0.95;;;;;;;3.03;100.00;100649.72;5035320;28;20491;-72
2024/01/14 12:14:09;;;;;;;3.10;0.88;;;;;;;3.04;100.00;100645.38;5045720;28;21215;-72
2024/01/14 12:16:54;;;;;;;3.88;1.08;;;;;;;3.08;100.00;100634.84;5054709;28;20036;-72
2024/01/14 12:19:42;;;;;;;6.97;0.93;;;;;;;3.17;100.00;100635.56;5020512;28;20506;-72
2024/01/14 12:22:28;;;;;;;4.75;1.00;;;;;;;3.24;100.00;100626.69;5053127;28;20086;-72
2024/01/14 12:25:14;;;;;;;4.80;1.20;;;;;;;3.27;100.00;100624.00;5052531;28;20072;-72
2024/01/14 12:28:00;;;;;;;2.97;1.02;;;;;;;3.28;100.00;100619.66;5051661;28;20032;-72
2024/01/14 12:30:45;;;;;;;4.15;1.25;;;;;;;3.27;100.00;100621.41;5053425;28;20155;-72
2024/01/14 12:33:33;;;;;;;6.78;1.00;;;;;;;3.25;100.00;100610.09;5056722;28;21400;-71
2024/01/14 12:36:18;;;;;;;3.15;0.95;;;;;;;3.25;100.00;100610.09;5047119;28;20050;-73
2024/01/14 12:39:04;;;;;;;2.28;1.00;;;;;;;3.25;100.00;100602.25;5051801;28;20039;-72
2024/01/14 12:41:50;;;;;;;2.05;0.90;;;;;;;3.27;100.00;100600.47;5044391;28;20111;-73
2024/01/14 12:44:42;;;;;;;1.85;1.13;;;;;;;3.28;100.00;100594.38;5029273;28;20064;-72
2024/01/14 12:47:30;;;;;;;4.75;1.00;;;;;;;3.27;100.00;100584.75;5041204;28;20028;-72
2024/01/14 12:50:17;;;;;;;5.35;1.15;;;;;;;3.29;100.00;100582.13;5057836;28;20028;-70
2024/01/14 12:53:06;;;;;;;3.85;1.10;;;;;;;3.32;100.00;100574.22;5055485;28;20079;-73
2024/01/14 12:56:06;;;;;;;4.57;0.95;;;;;;;3.40;100.00;100567.91;5052772;28;20491;-72